NCAR-RAP Real-Time Weather Data

Output produced by METARs form (24 April 2018  16:18 UTC)
found at http://weather.rap.ucar.edu/surface/
 
RJOI 241555Z 04005KT 9999 -SHRA FEW015 BKN025 BKN090 17/13 A2965 RMK SLP040 P0000 T01670133
RJOI 241455Z 32003KT 9999 -SHRA SCT015 BKN030 BKN045 17/14 A2966 RMK SHRAB04E45B1455 SLP043 P0000 60014 T01720139 402110167 53010
RJOI 241355Z 28006KT 9999 SCT015 BKN030 OVC045 18/14 A2963 RMK SHRAE45 SLP035 P0001 T01780144
RJOI 241255Z 30007KT 9999 SHRA FEW010 BKN035 OVC050 18/15 A2962 RMK SLP031 P0013 T01780150
RJOI 241230Z 30011KT 6000 -SHRA BR FEW010 BKN030 OVC045 18/16 A2964 RMK SLP035
RJOI 241155Z 30011KT 3200 SHRA BR FEW010 BKN030 OVC045 18/17 A2963 RMK SLP034 P0021 60081 70348 T01830167 10211 20183 51003
RJOI 241055Z 31005KT 3200 +SHRA BR FEW010 BKN020 OVC035 21/19 A2963 RMK SLP033 P0031 T02060189
RJOI 240955Z 00000KT 3200 SHRA BR FEW010 BKN020 OVC035 20/19 A2963 RMK SLP033 P0025 T02000189
RJOI 240855Z 18010KT 4000 -SHRA BR FEW010 BKN030 OVC045 21/19 A2962 RMK SLP031 P0007 60009 T02060189 56010
RJOI 240755Z COR 18014KT 4000 SHRA BR FEW010 BKN025 OVC045 21/19 A2962 RMK PK WND 18028/13 SLP029 P0001 T02060189
RJOI 240700Z 18017KT 4000 -SHRA BR FEW010 BKN025 OVC045 21/19 A2962 RMK SLP029
RJOI 240655Z 18019KT 6000 -SHRA BR FEW010 BKN025 OVC045 21/19 A2962 SLP030 P0001 T02110189
RJOI 240555Z 17015KT 6000 -SHRA BR FEW006 BKN020 OVC030 21/19 A2964 RMK SLP038 P0008 60222 T02110189 10211 20167 56034
RJOI 240455Z 16018KT 4000 SHRA BR SCT004 BKN015 OVC030 19/18 A2966 RMK SLP044 P0017 T01940178
RJOI 240355Z 09006KT 3200 +SHRA BR SCT004 BKN015 OVC030 18/16 A2970 RMK PRESFR SLP057 P0040 T01780161
RJOI 240336Z 00000KT 3200 SHRA BR SCT006 BKN010 OVC030 18/16 A2973 RMK SLP065
RJOI 240255Z 20004KT 1200 +SHRA BR SCT004 BKN010 OVC030 17/16 A2974 RMK SLP071 P0058 60157 T01720161 58027
RJOI 240155Z 00000KT 1600 +SHRA BR SCT004 BKN015 OVC035 17/16 A2978 RMK SLP084 P0062 T01720161
RJOI 240055Z 20004KT 1600 +SHRA BR SCT004 BKN015 OVC040 17/16 A2981 RMK SLP094 P0037 T01720161
RJOI 232355Z 24003KT 1600 SHRA BR SCT006 BKN015 OVC040 17/16 A2983 RMK SLP101 P0027 60043 T01720161 10178 20172 56007
RJOI 232325Z 00000KT 1600 SHRA BR SCT008 BKN015 OVC040 17/16 A2982 RMK SLP098
RJOI 232255Z 00000KT 3200 -SHRA BR FEW010 BKN025 OVC050 18/16 A2982 RMK SFC VIS 4800 SLP098 P0004 T01780161
RJOI 232219Z 00000KT 3200 -SHRA BR FEW010 BKN025 OVC060 18/16 A2983 RMK SFC VIS 4800 SLP102
RJOI 232155Z 00000KT 8000 -SHRA BR FEW010 BKN025 OVC040 18/16 A2985 RMK SLP106 VIS LWR SW-NW P0003 T01780161
RJOI 232055Z 04005KT 8000 -SHRA BR FEW010 BKN020 OVC040 18/16 A2985 RMK SLP108 VIS LWR SW-NW P0001 60009 T01780161 58014
RJOI 231955Z 09003KT 4800 -SHRA BR SCT015 BKN030 OVC045 17/16 A2987 RMK SLP113 P0006 T01720161
RJOI 231855Z 00000KT 6000 -SHRA BR SCT025 BKN040 OVC060 18/16 A2988 RMK SLP119 P0002 T01780161
RJOI 231755Z 01004KT 9000 -SHRA BR SCT020 BKN035 OVC050 18/16 A2989 RMK SLP121 P0002 60002 T01780161 10194 20178 58024
RJOI 231655Z 00000KT 9999 -SHRA SCT020 BKN030 OVC045 19/16 A2992 RMK SLP130 P0000 T01890161
RJOI 231555Z 03003KT 9000 -SHRA BR SCT020 BKN030 OVC045 18/16 A2994 RMK SLP138 P0000 T01780156
RJOI 231455Z 00000KT 9999 -SHRA SCT020 BKN030 OVC045 19/15 A2996 RMK SHRAB45 SLP145 P0000 60000 T01890150 402280161 58010
RJOI 231355Z 06003KT 9999 SCT020 BKN030 OVC045 19/15 A2998 RMK SLP151 T01940150
RJOI 231255Z 01004KT 9999 FEW020 BKN030 OVC045 19/16 A2999 RMK RAE30 SLP154 P0000 T01890156
RJOI 231155Z 02004KT 9999 -RA SCT025 BKN040 OVC080 19/16 A2999 RMK SLP154 P0000 60000 T01890161 10228 20189 51007
RJOI 231055Z 00000KT 9999 -RA FEW025 BKN040 OVC080 19/15 A2998 RMK RAB45 SLP153 P0000 T01940150
RJOI 230955Z 12007KT 9999 SCT030 BKN050 OVC070 19/15 A2998 RMK SLP151 T01940150
RJOI 230855Z 15009KT 9999 FEW020 BKN030 OVC070 21/15 A2996 RMK SLP146 60000 T02060150 56007
RJOI 230755Z 10005KT 9999 FEW025 BKN035 OVC060 20/14 A2997 RMK SHRAE20 SLP148 P0000 T02000144
RJOI 230655Z COR 13004KT 9999 -SHRA FEW030 BKN035 OVC065 21/14 A2997 RMK SHRAB21 SLP149 P0000 T02060144
RJOI 230555Z 22007KT 9999 FEW030 BKN035 OVC065 23/14 A2999 RMK SLP154 T02280139 10228 20183 56027
RJOI 230455Z 05003KT 9999 FEW030 BKN035 OVC065 22/13 A3001 RMK SLP160 T02170128
RJOI 230355Z 04003KT 9999 FEW007 BKN040 OVC070 21/12 A3003 RMK SLP168 T02110122
RJOI 230255Z 11003KT 9999 SCT030 BKN050 OVC130 21/13 A3006 RMK SLP178 T02110128 57007
RJOI 230155Z 19004KT 9999 FEW030 BKN060 BKN130 21/13 A3007 RMK SLP183 T02060128
RJOI 230055Z 10003KT 9999 FEW040 BKN060 BKN130 20/13 A3008 RMK SLP185 T02000128
RJOI 222355Z 04004KT 9999 FEW030 BKN080 BKN180 19/13 A3009 RMK SLP187 T01890128 10200 20161 50000
RJOI 222255Z 03004KT 9999 FEW030 BKN080 BKN180 18/13 A3009 RMK SLP188 T01830128
RJOI 222155Z 00000KT 9999 FEW030 FEW210 17/13 A3009 RMK SLP190 T01720128
RJOI 222055Z 30005KT 9999 SCT030 BKN210 16/13 A3009 RMK SLP187 T01610128 53007
RJOI 221955Z 31003KT 9999 SCT030 BKN210 17/12 A3007 RMK SLP181 T01670122
RJOI 221855Z 34003KT 9999 BKN040 17/13 A3006 RMK SLP178 T01720133
RJOI 221755Z 02006KT 9999 BKN040 17/13 A3006 RMK SLP179 T01670133 10206 20167 58007
RJOI 221655Z 00000KT 9999 OVC043 19/12 A3007 RMK SLP181 T01890122
RJOI 221555Z 30005KT 9999 BKN040 19/12 A3008 RMK SLP186 T01890122
RJOI 221455Z 31004KT 9999 BKN040 19/12 A3008 RMK SLP186 T01890122 402390150 53003
RJOI 221355Z 00000KT 9999 FEW240 18/13 A3008 RMK SLP184 T01780133
RJOI 221255Z VRB03KT 9999 FEW240 18/13 A3008 RMK SLP184 T01830133
RJOI 221155Z COR 00000KT 9999 SCT240 21/13 A3007 RMK SLP182 T02060128 10233 20194 52017
RJOI 221055Z 00000KT 9999 SCT240 21/14 A3005 RMK SLP177 T02060139
RJOI 220955Z 00000KT 9999 SCT240 21/14 A3004 RMK SLP172 T02060139
RJOI 220855Z 21008KT 9999 SCT240 23/14 A3003 RMK SLP168 T02280144 57014
RJOI 220755Z 19008KT 9999 FEW030 BKN240 23/15 A3003 RMK SLP170 T02330150
RJOI 220655Z 13006KT 9999 FEW030 BKN240 22/16 A3005 RMK SLP174 T02220161
RJOI 220555Z 12006KT 9999 FEW030 BKN240 22/13 A3006 RMK SLP179 T02220128 10222 20183 57020
RJOI 220455Z 11007KT 9999 FEW030 BKN240 22/15 A3009 RMK SLP188 T02170150